createdAt,value
2023-03-01T00:01:27.058Z,16.25
2023-03-01T00:03:54.426Z,15.18
2023-03-01T00:06:21.699Z,16.08
2023-03-01T00:08:49.124Z,15.63
2023-03-01T00:11:16.262Z,18.17
2023-03-01T00:13:43.458Z,16.45
2023-03-01T00:16:13.898Z,17.02
2023-03-01T00:18:41.294Z,15.73
2023-03-01T00:21:08.428Z,15.63
2023-03-01T00:23:36.168Z,15.35
2023-03-01T00:26:03.256Z,16.00
2023-03-01T00:28:30.305Z,15.48
2023-03-01T00:30:57.523Z,16.08
2023-03-01T00:33:24.638Z,15.52
2023-03-01T00:35:51.719Z,15.07
2023-03-01T00:38:19.147Z,15.83
2023-03-01T00:40:46.255Z,14.85
2023-03-01T00:43:13.315Z,16.90
2023-03-01T00:45:40.366Z,14.77
2023-03-01T00:48:07.543Z,16.83
2023-03-01T00:50:34.717Z,15.75
2023-03-01T00:53:01.841Z,16.92
2023-03-01T00:55:28.919Z,14.93
2023-03-01T00:57:56.025Z,16.80
2023-03-01T01:00:23.524Z,15.40
2023-03-01T01:02:50.806Z,14.80
2023-03-01T01:05:21.877Z,15.37
2023-03-01T01:07:49.428Z,16.97
2023-03-01T01:10:17.982Z,14.95
2023-03-01T01:12:46.282Z,14.00
2023-03-01T01:15:15.079Z,15.55
2023-03-01T01:17:42.610Z,16.42
2023-03-01T01:20:10.177Z,17.70
2023-03-01T01:22:37.301Z,15.18
2023-03-01T01:25:04.413Z,15.82
2023-03-01T01:27:31.557Z,14.27
2023-03-01T01:29:58.631Z,15.30
2023-03-01T01:32:27.165Z,14.82
2023-03-01T01:34:54.494Z,14.68
2023-03-01T01:37:23.510Z,16.90
2023-03-01T01:39:50.553Z,16.20
2023-03-01T01:42:19.321Z,16.15
2023-03-01T01:44:48.195Z,16.55
2023-03-01T01:47:19.652Z,14.52
2023-03-01T01:49:46.802Z,14.82
2023-03-01T01:52:18.241Z,15.48
2023-03-01T01:54:50.826Z,15.52
2023-03-01T01:57:23.633Z,16.95
2023-03-01T01:59:53.916Z,17.75
2023-03-01T02:02:21.373Z,16.17
2023-03-01T02:04:49.880Z,15.32
2023-03-01T02:07:20.341Z,16.40
2023-03-01T02:09:49.325Z,19.73
2023-03-01T02:12:18.577Z,17.83
2023-03-01T02:14:45.828Z,15.48
2023-03-01T02:17:14.517Z,17.40
2023-03-01T02:19:50.222Z,15.98
2023-03-01T02:22:17.340Z,18.67
2023-03-01T02:24:51.109Z,15.73
2023-03-01T02:27:19.304Z,16.90
2023-03-01T02:29:46.347Z,16.77
2023-03-01T02:32:14.776Z,14.82
2023-03-01T02:34:42.023Z,18.77
2023-03-01T02:37:13.591Z,17.25
2023-03-01T02:39:44.486Z,14.63
2023-03-01T02:42:14.558Z,16.00
2023-03-01T02:44:41.716Z,16.65
2023-03-01T02:47:08.787Z,16.20
2023-03-01T02:49:37.153Z,17.23
2023-03-01T02:52:24.163Z,16.08
2023-03-01T02:55:02.519Z,16.65
2023-03-01T02:57:30.412Z,14.70
2023-03-01T02:59:59.003Z,15.63
2023-03-01T03:02:42.841Z,16.80
2023-03-01T03:05:13.796Z,16.83
2023-03-01T03:07:42.833Z,15.45
2023-03-01T03:10:13.901Z,18.42
2023-03-01T03:12:41.003Z,14.60
2023-03-01T03:15:09.794Z,15.70
2023-03-01T03:17:38.316Z,15.25
2023-03-01T03:20:06.539Z,15.00
2023-03-01T03:22:34.931Z,14.35
2023-03-01T03:25:02.089Z,16.00
2023-03-01T03:27:30.322Z,15.55
2023-03-01T03:29:57.421Z,16.93
2023-03-01T03:32:24.535Z,15.07
2023-03-01T03:34:51.646Z,17.10
2023-03-01T03:37:38.616Z,15.23
2023-03-01T03:40:16.166Z,19.13
2023-03-01T03:42:43.314Z,16.17
2023-03-01T03:45:10.493Z,16.65
2023-03-01T03:47:37.576Z,15.27
2023-03-01T03:50:04.791Z,20.25
2023-03-01T03:52:31.844Z,17.77
2023-03-01T03:54:58.918Z,18.58
2023-03-01T03:57:26.045Z,16.58
2023-03-01T03:59:53.158Z,17.67
2023-03-01T04:02:23.115Z,17.17
2023-03-01T04:04:50.642Z,16.58
2023-03-01T04:07:18.167Z,17.00
2023-03-01T04:09:45.422Z,16.65
2023-03-01T04:12:12.508Z,17.67
2023-03-01T04:14:39.587Z,17.58
2023-03-01T04:17:06.712Z,17.48
2023-03-01T04:19:36.916Z,19.40
2023-03-01T04:22:10.282Z,19.48
2023-03-01T04:24:37.615Z,20.17
2023-03-01T04:27:04.716Z,17.00
2023-03-01T04:29:31.809Z,18.80
2023-03-01T04:31:59.998Z,20.70
2023-03-01T04:34:28.344Z,18.65
2023-03-01T04:36:55.526Z,16.65
2023-03-01T04:39:23.040Z,18.83
2023-03-01T04:41:50.108Z,14.90
2023-03-01T04:44:17.231Z,17.38
2023-03-01T04:46:44.271Z,16.15
2023-03-01T04:49:11.322Z,17.90
2023-03-01T04:51:38.635Z,17.95
2023-03-01T04:54:09.688Z,17.80
2023-03-01T04:56:36.867Z,20.52
2023-03-01T04:59:06.616Z,19.00
2023-03-01T05:01:33.906Z,19.42
2023-03-01T05:04:04.039Z,20.67
2023-03-01T05:06:31.519Z,20.08
2023-03-01T05:08:59.013Z,20.75
2023-03-01T05:11:26.101Z,18.95
2023-03-01T05:13:55.898Z,18.67
2023-03-01T05:16:23.339Z,20.77
2023-03-01T05:18:51.409Z,25.85
2023-03-01T05:21:18.603Z,25.83
2023-03-01T05:23:46.218Z,22.38
2023-03-01T05:26:27.512Z,20.17
2023-03-01T05:28:59.487Z,21.55
2023-03-01T05:31:26.912Z,18.80
2023-03-01T05:33:53.995Z,19.58
2023-03-01T05:36:21.100Z,20.40
2023-03-01T05:38:48.185Z,21.33
2023-03-01T05:41:16.770Z,20.27
2023-03-01T05:43:45.866Z,20.45
2023-03-01T05:46:14.233Z,19.58
2023-03-01T05:48:41.678Z,18.92
2023-03-01T05:51:08.727Z,21.33
2023-03-01T05:53:35.496Z,19.13
2023-03-01T05:56:04.894Z,18.40
2023-03-01T05:58:31.960Z,20.77
2023-03-01T06:00:59.109Z,20.75
2023-03-01T06:03:26.193Z,16.33
2023-03-01T06:05:57.283Z,17.33
2023-03-01T06:08:25.277Z,17.63
2023-03-01T06:10:52.347Z,20.38
2023-03-01T06:13:19.479Z,19.38
2023-03-01T06:15:46.567Z,18.73
2023-03-01T06:18:13.706Z,17.15
2023-03-01T06:20:40.761Z,19.10
2023-03-01T06:23:09.159Z,20.45
2023-03-01T06:25:37.050Z,19.48
2023-03-01T06:28:05.436Z,19.13
2023-03-01T06:30:32.968Z,17.20
2023-03-01T06:33:03.961Z,19.80
2023-03-01T06:35:32.021Z,18.23
2023-03-01T06:38:00.231Z,19.67
2023-03-01T06:40:27.481Z,16.07
2023-03-01T06:42:54.624Z,23.98
2023-03-01T06:45:22.184Z,19.33
2023-03-01T06:47:49.560Z,18.13
2023-03-01T06:50:17.626Z,19.63
2023-03-01T06:55:13.551Z,18.58
2023-03-01T06:57:40.628Z,18.38
2023-03-01T07:00:08.991Z,19.08
2023-03-01T07:02:36.186Z,23.60
2023-03-01T07:05:03.237Z,18.13
2023-03-01T07:07:30.287Z,19.98
2023-03-01T07:09:57.429Z,18.50
2023-03-01T07:12:24.518Z,22.98
2023-03-01T07:17:32.648Z,21.23
2023-03-01T07:19:59.802Z,20.02
2023-03-01T07:22:26.881Z,19.20
2023-03-01T07:24:54.111Z,19.57
2023-03-01T07:27:21.207Z,21.17
2023-03-01T07:29:48.265Z,20.80
2023-03-01T07:32:15.522Z,20.60
2023-03-01T07:34:42.240Z,20.45
2023-03-01T07:37:09.936Z,19.97
2023-03-01T07:39:37.021Z,21.48
2023-03-01T07:42:04.148Z,20.27
2023-03-01T07:44:31.208Z,24.08
2023-03-01T07:46:59.098Z,23.55
2023-03-01T07:49:27.359Z,24.35
2023-03-01T07:51:54.652Z,21.45
2023-03-01T07:54:21.821Z,22.00
2023-03-01T07:56:48.935Z,23.60
2023-03-01T07:59:16.135Z,22.43
2023-03-01T08:01:43.254Z,23.00
2023-03-01T08:04:11.419Z,25.42
2023-03-01T08:06:38.626Z,22.00
2023-03-01T08:09:05.786Z,22.98
2023-03-01T08:11:32.662Z,23.45
2023-03-01T08:13:59.810Z,20.50
2023-03-01T08:16:27.196Z,21.33
2023-03-01T08:18:57.484Z,21.95
2023-03-01T08:21:24.562Z,20.63
2023-03-01T08:23:51.650Z,22.60
2023-03-01T08:26:20.222Z,19.38
2023-03-01T08:28:50.743Z,19.83
2023-03-01T08:31:19.793Z,21.08
2023-03-01T08:33:51.590Z,20.33
2023-03-01T08:36:20.632Z,22.00
2023-03-01T08:38:47.778Z,20.73
2023-03-01T08:41:15.260Z,23.57
2023-03-01T08:43:42.712Z,20.02
2023-03-01T08:46:09.900Z,19.65
2023-03-01T08:48:37.259Z,21.13
2023-03-01T08:51:14.343Z,18.17
2023-03-01T08:53:41.739Z,19.95
2023-03-01T08:56:09.635Z,19.13
2023-03-01T08:58:37.141Z,20.02
2023-03-01T09:01:04.117Z,18.67
2023-03-01T09:03:30.741Z,19.45
2023-03-01T09:06:01.212Z,24.40
2023-03-01T09:08:28.446Z,17.60
2023-03-01T09:10:55.654Z,19.95
2023-03-01T09:13:25.725Z,19.73
2023-03-01T09:15:52.786Z,18.30
2023-03-01T09:18:19.908Z,19.67
2023-03-01T09:20:46.964Z,22.23
2023-03-01T09:23:14.072Z,25.50
2023-03-01T09:25:41.149Z,18.23
2023-03-01T09:28:10.637Z,21.08
2023-03-01T09:30:42.847Z,24.30
2023-03-01T09:33:15.406Z,17.17
2023-03-01T09:35:47.087Z,19.65
2023-03-01T09:38:14.889Z,21.08
2023-03-01T09:40:47.298Z,19.73
2023-03-01T09:43:26.241Z,21.40
2023-03-01T09:45:56.044Z,18.27
2023-03-01T09:48:27.428Z,17.80
2023-03-01T09:50:54.499Z,18.80
2023-03-01T09:53:24.148Z,19.48
2023-03-01T09:56:20.055Z,17.53
2023-03-01T09:59:09.867Z,17.55
2023-03-01T10:01:44.954Z,16.27
2023-03-01T10:04:19.063Z,17.73
2023-03-01T10:06:55.424Z,18.30
2023-03-01T10:09:22.412Z,16.70
2023-03-01T10:11:54.060Z,18.35
2023-03-01T10:14:41.775Z,17.20
2023-03-01T10:17:21.137Z,17.85
2023-03-01T10:19:48.490Z,18.60
2023-03-01T10:22:29.055Z,17.15
2023-03-01T10:25:00.608Z,16.67
2023-03-01T10:27:38.355Z,17.17
2023-03-01T10:30:12.201Z,17.60
2023-03-01T10:32:39.093Z,16.33
2023-03-01T10:35:25.204Z,15.95
2023-03-01T10:38:11.096Z,15.13
2023-03-01T10:40:53.249Z,14.55
2023-03-01T10:43:20.745Z,16.13
2023-03-01T10:45:48.217Z,15.85
2023-03-01T10:48:24.414Z,15.60
2023-03-01T10:51:06.980Z,14.63
2023-03-01T10:53:37.414Z,16.10
2023-03-01T10:56:08.475Z,16.30
2023-03-01T10:58:38.288Z,16.33
2023-03-01T11:01:09.681Z,16.97
2023-03-01T11:03:38.965Z,15.10
2023-03-01T11:06:13.063Z,16.58
2023-03-01T11:08:44.133Z,16.45
2023-03-01T11:11:14.059Z,15.45
2023-03-01T11:13:55.815Z,14.57
2023-03-01T11:16:26.375Z,14.27
2023-03-01T11:19:19.399Z,16.20
2023-03-01T11:21:59.166Z,15.82
2023-03-01T11:24:32.490Z,16.08
2023-03-01T11:27:03.556Z,14.60
2023-03-01T11:29:48.375Z,17.42
2023-03-01T11:32:16.703Z,16.58
2023-03-01T11:34:54.414Z,15.27
2023-03-01T11:37:44.248Z,17.17
2023-03-01T11:40:21.452Z,15.20
2023-03-01T11:43:16.471Z,12.52
2023-03-01T11:45:51.708Z,14.43
2023-03-01T11:48:24.871Z,13.70
2023-03-01T11:50:52.524Z,15.53
2023-03-01T11:53:51.043Z,13.35
2023-03-01T11:56:24.024Z,14.30
2023-03-01T11:59:10.637Z,13.70
2023-03-01T12:01:48.741Z,14.40
2023-03-01T12:04:46.124Z,12.70
2023-03-01T12:07:40.255Z,16.02
2023-03-01T12:10:28.547Z,14.85
2023-03-01T12:13:14.656Z,13.70
2023-03-01T12:16:09.558Z,14.00
2023-03-01T12:19:03.543Z,13.23
2023-03-01T12:21:42.616Z,14.83
2023-03-01T12:24:28.477Z,14.68
2023-03-01T12:27:19.836Z,13.30
2023-03-01T12:30:11.641Z,11.57
2023-03-01T12:32:48.213Z,13.77
2023-03-01T12:35:30.019Z,13.43
2023-03-01T12:38:29.758Z,11.63
2023-03-01T12:41:27.844Z,11.93
2023-03-01T12:44:09.978Z,11.32
2023-03-01T12:46:45.528Z,11.57
2023-03-01T12:49:16.893Z,12.60
2023-03-01T12:51:52.706Z,14.02
2023-03-01T12:54:29.144Z,11.93
2023-03-01T12:56:58.052Z,12.43
2023-03-01T12:59:29.373Z,11.73
2023-03-01T13:02:29.813Z,12.47
2023-03-01T13:05:09.484Z,12.25
2023-03-01T13:07:40.498Z,15.07
2023-03-01T13:10:34.102Z,11.32
2023-03-01T13:13:12.152Z,12.70
2023-03-01T13:15:40.578Z,10.85
2023-03-01T13:18:25.208Z,11.13
2023-03-01T13:20:58.140Z,10.63
2023-03-01T13:23:26.833Z,11.32
2023-03-01T13:26:15.734Z,12.80
2023-03-01T13:28:45.776Z,12.20
2023-03-01T13:31:19.884Z,11.65
2023-03-01T13:33:48.317Z,11.23
2023-03-01T13:36:31.798Z,21.73
2023-03-01T13:39:02.153Z,13.27
2023-03-01T13:41:44.319Z,13.80
2023-03-01T13:44:34.260Z,15.50
2023-03-01T13:47:06.660Z,12.50
2023-03-01T13:49:48.913Z,13.68
2023-03-01T13:52:32.873Z,12.77
2023-03-01T13:55:01.076Z,13.80
2023-03-01T13:57:34.494Z,12.23
2023-03-01T14:00:01.215Z,12.85
2023-03-01T14:02:28.108Z,14.63
2023-03-01T14:04:59.843Z,13.45
2023-03-01T14:07:30.451Z,12.40
2023-03-01T14:10:02.655Z,13.05
2023-03-01T14:12:53.476Z,12.25
2023-03-01T14:15:22.728Z,13.48
2023-03-01T14:18:09.341Z,11.90
2023-03-01T14:20:42.792Z,12.68
2023-03-01T14:23:15.063Z,12.27
2023-03-01T14:25:52.127Z,11.90
2023-03-01T14:28:22.891Z,11.80
2023-03-01T14:30:52.631Z,11.57
2023-03-01T14:33:24.710Z,13.32
2023-03-01T14:35:55.759Z,11.60
2023-03-01T14:38:28.756Z,12.52
2023-03-01T14:41:00.138Z,12.27
2023-03-01T14:43:27.280Z,10.82
2023-03-01T14:45:56.305Z,11.70
2023-03-01T14:48:23.846Z,10.40
2023-03-01T14:50:51.707Z,12.32
2023-03-01T14:53:22.687Z,12.45
2023-03-01T14:55:54.031Z,12.35
2023-03-01T14:58:23.560Z,11.73
2023-03-01T15:00:53.070Z,11.57
2023-03-01T15:03:33.781Z,11.43
2023-03-01T15:06:02.964Z,12.52
2023-03-01T15:08:33.975Z,12.57
2023-03-01T15:11:19.542Z,11.00
2023-03-01T15:13:47.428Z,11.68
2023-03-01T15:16:18.087Z,12.90
2023-03-01T15:18:49.079Z,13.52
2023-03-01T15:21:20.882Z,14.30
2023-03-01T15:23:54.049Z,11.60
2023-03-01T15:26:41.288Z,11.75
2023-03-01T15:29:19.232Z,13.47
2023-03-01T15:31:55.624Z,12.95
2023-03-01T15:34:25.983Z,11.65
2023-03-01T15:36:55.553Z,11.63
2023-03-01T15:39:44.416Z,11.90
2023-03-01T15:42:12.445Z,10.77
2023-03-01T15:44:44.267Z,10.48
2023-03-01T15:47:28.582Z,11.20
2023-03-01T15:49:56.320Z,10.13
2023-03-01T15:52:29.766Z,11.05
2023-03-01T15:54:58.854Z,11.27
2023-03-01T15:57:25.959Z,10.57
2023-03-01T15:59:53.132Z,10.65
2023-03-01T16:02:22.075Z,11.57
2023-03-01T16:04:50.306Z,11.60
2023-03-01T16:07:17.428Z,10.43
2023-03-01T16:09:44.953Z,11.82
2023-03-01T16:12:15.635Z,11.00
2023-03-01T16:14:42.752Z,11.23
2023-03-01T16:17:11.188Z,13.90
2023-03-01T16:19:39.779Z,12.10
2023-03-01T16:22:06.938Z,13.70
2023-03-01T16:24:34.045Z,12.68
2023-03-01T16:27:01.116Z,13.30
2023-03-01T16:29:30.044Z,13.03
2023-03-01T16:31:57.304Z,13.18
2023-03-01T16:34:24.610Z,13.18
2023-03-01T16:36:51.751Z,15.07
2023-03-01T16:39:18.831Z,15.25
2023-03-01T16:41:45.954Z,14.23
2023-03-01T16:44:13.039Z,19.07
2023-03-01T16:46:43.722Z,15.05
2023-03-01T16:49:10.805Z,16.15
2023-03-01T16:51:37.992Z,11.73
2023-03-01T16:54:05.570Z,14.17
2023-03-01T16:56:35.248Z,13.68
2023-03-01T16:59:04.709Z,15.40
2023-03-01T17:01:36.055Z,14.10
2023-03-01T17:04:03.150Z,13.88
2023-03-01T17:06:30.218Z,14.57
2023-03-01T17:08:58.770Z,13.82
2023-03-01T17:11:25.880Z,15.52
2023-03-01T17:13:53.365Z,13.65
2023-03-01T17:16:21.369Z,14.40
2023-03-01T17:18:48.771Z,13.95
2023-03-01T17:21:15.891Z,14.98
2023-03-01T17:23:44.339Z,15.23
2023-03-01T17:26:11.465Z,15.85
2023-03-01T17:28:39.004Z,13.95
2023-03-01T17:31:07.335Z,15.48
2023-03-01T17:33:34.770Z,15.67
2023-03-01T17:36:02.199Z,14.50
2023-03-01T17:38:29.453Z,16.00
2023-03-01T17:40:59.279Z,15.70
2023-03-01T17:43:26.486Z,15.05
2023-03-01T17:45:54.621Z,13.73
2023-03-01T17:48:21.897Z,16.73
2023-03-01T17:50:48.853Z,13.55
2023-03-01T17:53:16.147Z,14.77
2023-03-01T17:55:43.983Z,17.02
2023-03-01T17:58:12.633Z,16.08
2023-03-01T18:00:39.920Z,14.52
2023-03-01T18:03:07.367Z,15.88
2023-03-01T18:05:35.705Z,15.38
2023-03-01T18:08:02.802Z,16.70
2023-03-01T18:10:29.888Z,16.80
2023-03-01T18:12:57.404Z,18.92
2023-03-01T18:15:24.550Z,20.40
2023-03-01T18:17:51.718Z,18.55
2023-03-01T18:20:19.322Z,19.27
2023-03-01T18:22:46.451Z,20.08
2023-03-01T18:25:14.938Z,18.27
2023-03-01T18:27:42.068Z,19.43
2023-03-01T18:30:09.723Z,20.17
2023-03-01T18:32:39.573Z,21.67
2023-03-01T18:35:07.538Z,20.45
2023-03-01T18:37:34.731Z,21.13
2023-03-01T18:40:01.806Z,22.03
2023-03-01T18:42:28.938Z,20.25
2023-03-01T18:44:56.098Z,23.08
2023-03-01T18:47:23.202Z,21.38
2023-03-01T18:49:50.300Z,21.83
2023-03-01T18:52:17.461Z,21.63
2023-03-01T18:54:44.577Z,22.48
2023-03-01T18:57:11.645Z,20.70
2023-03-01T18:59:41.512Z,21.60
2023-03-01T19:02:08.691Z,21.15
2023-03-01T19:04:35.875Z,19.77
2023-03-01T19:07:03.230Z,23.30
2023-03-01T19:09:30.403Z,24.48
2023-03-01T19:12:00.736Z,22.40
2023-03-01T19:14:27.963Z,21.43
2023-03-01T19:16:55.076Z,21.47
2023-03-01T19:19:22.136Z,21.23
2023-03-01T19:21:59.456Z,19.50
2023-03-01T19:24:32.820Z,21.40
2023-03-01T19:26:59.975Z,23.50
2023-03-01T19:29:27.162Z,22.08
2023-03-01T19:31:54.421Z,21.63
2023-03-01T19:34:22.863Z,25.40
2023-03-01T19:36:49.998Z,22.60
2023-03-01T19:39:17.303Z,23.33
2023-03-01T19:41:44.567Z,22.75
2023-03-01T19:44:12.364Z,24.45
2023-03-01T19:46:39.539Z,22.75
2023-03-01T19:49:07.027Z,22.67
2023-03-01T19:51:36.314Z,29.48
2023-03-01T19:54:03.807Z,26.23
2023-03-01T19:56:31.151Z,24.83
2023-03-01T19:59:00.627Z,24.63
2023-03-01T20:01:29.658Z,23.35
2023-03-01T20:03:56.936Z,24.92
2023-03-01T20:06:25.575Z,22.42
2023-03-01T20:08:53.308Z,24.67
2023-03-01T20:11:20.856Z,22.83
2023-03-01T20:13:48.278Z,25.65
2023-03-01T20:16:17.135Z,24.38
2023-03-01T20:18:44.340Z,23.92
2023-03-01T20:21:21.705Z,24.88
2023-03-01T20:23:50.472Z,25.58
2023-03-01T20:26:19.687Z,23.13
2023-03-01T20:28:47.701Z,22.67
2023-03-01T20:31:15.738Z,23.00
2023-03-01T20:33:42.882Z,21.43
2023-03-01T20:36:10.921Z,23.80
2023-03-01T20:38:38.336Z,32.50
2023-03-01T20:41:06.781Z,24.42
2023-03-01T20:43:34.441Z,22.92
2023-03-01T20:46:05.394Z,23.52
2023-03-01T20:48:32.490Z,24.03
2023-03-01T20:51:01.750Z,26.30
2023-03-01T20:53:29.308Z,22.50
2023-03-01T20:55:56.470Z,24.55
2023-03-01T20:58:23.554Z,23.67
2023-03-01T21:00:52.145Z,26.10
2023-03-01T21:03:18.885Z,25.52
2023-03-01T21:05:45.981Z,27.55
2023-03-01T21:08:13.077Z,25.20
2023-03-01T21:10:40.254Z,24.63
2023-03-01T21:13:07.514Z,23.60
2023-03-01T21:15:34.581Z,25.35
2023-03-01T21:18:02.109Z,23.60
2023-03-01T21:20:29.251Z,27.55
2023-03-01T21:22:56.380Z,25.73
2023-03-01T21:25:23.486Z,23.77
2023-03-01T21:27:50.544Z,26.23
2023-03-01T21:30:17.737Z,31.90
2023-03-01T21:32:44.876Z,25.27
2023-03-01T21:35:12.148Z,26.08
2023-03-01T21:37:40.449Z,23.33
2023-03-01T21:40:09.020Z,24.35
2023-03-01T21:42:36.837Z,25.17
2023-03-01T21:45:03.997Z,25.00
2023-03-01T21:47:31.125Z,22.13
2023-03-01T21:49:58.235Z,23.47
2023-03-01T21:52:25.388Z,23.53
2023-03-01T21:54:52.565Z,22.23
2023-03-01T21:57:20.016Z,22.30
2023-03-01T21:59:47.210Z,23.33
2023-03-01T22:02:14.710Z,22.75
2023-03-01T22:04:41.823Z,20.73
2023-03-01T22:07:08.932Z,23.80
2023-03-01T22:09:36.254Z,23.25
2023-03-01T22:12:03.618Z,23.00
2023-03-01T22:14:31.681Z,23.17
2023-03-01T22:16:59.330Z,25.25
2023-03-01T22:19:28.587Z,25.83
2023-03-01T22:21:55.705Z,24.48
2023-03-01T22:24:24.109Z,22.90
2023-03-01T22:26:51.267Z,25.48
2023-03-01T22:29:20.469Z,24.25
2023-03-01T22:31:47.928Z,23.40
2023-03-01T22:34:16.945Z,23.55
2023-03-01T22:36:44.597Z,27.23
2023-03-01T22:39:12.169Z,24.58
2023-03-01T22:41:43.119Z,23.80
2023-03-01T22:44:10.938Z,25.08
2023-03-01T22:46:38.381Z,24.20
2023-03-01T22:49:05.518Z,24.63
2023-03-01T22:51:34.645Z,28.02
2023-03-01T22:54:01.681Z,26.38
2023-03-01T22:56:30.530Z,25.35
2023-03-01T22:58:59.115Z,25.88
2023-03-01T23:01:26.812Z,24.58
2023-03-01T23:03:53.961Z,24.02
2023-03-01T23:06:22.015Z,25.95
2023-03-01T23:08:51.366Z,24.25
2023-03-01T23:11:19.123Z,23.58
2023-03-01T23:13:46.241Z,26.58
2023-03-01T23:16:13.854Z,23.38
2023-03-01T23:18:41.360Z,23.17
2023-03-01T23:21:11.187Z,24.02
2023-03-01T23:23:38.598Z,23.52
2023-03-01T23:26:06.117Z,23.10
2023-03-01T23:28:33.346Z,23.38
2023-03-01T23:31:03.207Z,23.58
2023-03-01T23:33:37.740Z,24.10
2023-03-01T23:36:07.347Z,23.83
2023-03-01T23:38:34.632Z,23.70
2023-03-01T23:41:01.855Z,22.52
2023-03-01T23:43:28.958Z,24.25
2023-03-01T23:45:56.070Z,25.58
2023-03-01T23:48:23.306Z,25.23
2023-03-01T23:50:50.353Z,25.30
2023-03-01T23:53:18.208Z,26.20
2023-03-01T23:55:48.130Z,25.48
2023-03-01T23:58:15.416Z,24.13
